Time;durP1;ratioP1;P1;durP2;ratioP2;P2;SDS_P1;SDS_P2;PMS_P1;PMS_P2;Temp;Humidity;BMP_temperature;BMP_pressure;BME280_temperature;BME280_humidity;BME280_pressure;Samples;Min_cycle;Max_cycle;Signal;HPM_P1;HPM_P2
2023/07/04 00:01:17;;;;;;;1.60;0.20;;;;;;;19.08;100.00;100560.19;5062669;28;20056;-67
2023/07/04 00:03:45;;;;;;;2.15;0.30;;;;;;;19.02;100.00;100557.50;5052068;28;20028;-67
2023/07/04 00:06:15;;;;;;;4.43;0.30;;;;;;;18.98;100.00;100553.63;5069315;28;20120;-67
2023/07/04 00:08:41;;;;;;;0.80;0.20;;;;;;;18.97;100.00;100560.75;5065851;28;20041;-67
2023/07/04 00:11:09;;;;;;;0.77;0.20;;;;;;;18.91;100.00;100574.72;5068398;28;20043;-67
2023/07/04 00:13:37;;;;;;;1.48;0.20;;;;;;;18.80;100.00;100573.47;5060806;28;20569;-66
2023/07/04 00:16:10;;;;;;;0.75;0.20;;;;;;;18.75;100.00;100575.88;5062060;28;20029;-67
2023/07/04 00:18:40;;;;;;;1.80;0.10;;;;;;;18.61;100.00;100574.16;5066168;28;20048;-66
2023/07/04 00:21:14;;;;;;;2.55;0.20;;;;;;;18.56;100.00;100581.81;5060176;28;20115;-66
2023/07/04 00:23:45;;;;;;;0.70;0.20;;;;;;;18.56;100.00;100579.19;5072775;28;20028;-66
2023/07/04 00:26:13;;;;;;;0.50;0.20;;;;;;;18.61;100.00;100568.91;5058399;28;20064;-66
2023/07/04 00:28:38;;;;;;;2.60;0.13;;;;;;;18.64;100.00;100562.41;5069953;28;20051;-66
2023/07/04 00:31:07;;;;;;;1.25;0.20;;;;;;;18.59;100.00;100555.03;5062608;28;20041;-66
2023/07/04 00:33:33;;;;;;;1.00;0.45;;;;;;;18.51;100.00;100544.66;5062748;28;20040;-66
2023/07/04 00:36:05;;;;;;;2.72;0.32;;;;;;;18.45;100.00;100534.88;5059850;28;20481;-66
2023/07/04 00:38:35;;;;;;;4.65;0.50;;;;;;;18.45;100.00;100524.31;5065128;28;20056;-67
2023/07/04 00:41:30;;;;;;;0.98;0.20;;;;;;;18.45;100.00;100516.41;5061600;28;20041;-67
2023/07/04 00:44:01;;;;;;;0.75;0.17;;;;;;;18.56;100.00;100482.38;5054910;28;20040;-67
2023/07/04 00:46:45;;;;;;;0.63;0.17;;;;;;;18.56;100.00;100457.81;5065762;28;20020;-67
2023/07/04 00:49:17;;;;;;;0.50;0.20;;;;;;;18.50;100.00;100434.84;5056346;28;20037;-67
2023/07/04 00:51:47;;;;;;;4.22;0.20;;;;;;;18.43;100.00;100424.25;5065400;28;20119;-66
2023/07/04 00:54:15;;;;;;;1.95;0.10;;;;;;;18.37;100.00;100424.25;5061280;28;20079;-67
2023/07/04 00:56:41;;;;;;;2.17;0.20;;;;;;;18.35;100.00;100432.38;5063351;28;20055;-67
2023/07/04 00:59:08;;;;;;;2.83;0.10;;;;;;;18.32;100.00;100460.97;5074377;28;20403;-66
2023/07/04 01:01:34;;;;;;;2.13;0.20;;;;;;;18.31;100.00;100493.63;5062231;28;20028;-66
2023/07/04 01:04:03;;;;;;;2.65;0.15;;;;;;;18.23;100.00;100513.84;5058497;28;20116;-66
2023/07/04 01:06:52;;;;;;;1.50;0.30;;;;;;;18.12;100.00;100518.84;5070124;28;20743;-66
2023/07/04 01:09:21;;;;;;;2.38;0.20;;;;;;;18.14;100.00;100499.19;5070322;28;20036;-66
2023/07/04 01:11:49;;;;;;;1.05;0.20;;;;;;;18.14;100.00;100493.91;5068855;28;20067;-67
2023/07/04 01:14:25;;;;;;;2.78;0.50;;;;;;;18.19;100.00;100506.53;5065246;28;20029;-67
2023/07/04 01:16:52;;;;;;;1.08;0.20;;;;;;;18.20;100.00;100523.97;5071273;28;20040;-67
2023/07/04 01:19:25;;;;;;;2.30;0.20;;;;;;;18.16;100.00;100531.44;5057522;28;20384;-67
2023/07/04 01:22:00;;;;;;;1.85;0.20;;;;;;;18.14;100.00;100541.38;5059194;28;20037;-68
2023/07/04 01:24:46;;;;;;;0.98;0.20;;;;;;;17.98;100.00;100531.09;5057906;28;20399;-68
2023/07/04 01:27:14;;;;;;;0.50;0.17;;;;;;;17.95;100.00;100525.44;5060082;28;20369;-67
2023/07/04 01:29:40;;;;;;;0.88;0.20;;;;;;;17.98;100.00;100541.66;5058863;28;20056;-68
2023/07/04 01:32:06;;;;;;;1.45;0.10;;;;;;;17.99;100.00;100534.56;5060930;28;20465;-67
2023/07/04 01:34:33;;;;;;;2.38;0.20;;;;;;;17.92;100.00;100542.44;5068783;28;20043;-68
2023/07/04 01:37:00;;;;;;;2.42;0.20;;;;;;;17.88;100.00;100543.81;5076225;28;20094;-67
2023/07/04 01:39:25;;;;;;;3.35;0.20;;;;;;;17.84;100.00;100546.00;5067474;28;20029;-67
2023/07/04 01:41:51;;;;;;;2.25;0.10;;;;;;;17.82;100.00;100552.47;5060698;28;20036;-67
2023/07/04 01:44:16;;;;;;;0.50;0.20;;;;;;;17.73;100.00;100554.44;5060650;28;20032;-67
2023/07/04 01:46:42;;;;;;;0.68;0.10;;;;;;;17.69;100.00;100541.81;5056186;28;20040;-67
2023/07/04 01:49:09;;;;;;;2.05;0.10;;;;;;;17.64;100.00;100549.44;5057595;28;20056;-67
2023/07/04 01:51:39;;;;;;;0.95;0.20;;;;;;;17.63;100.00;100547.81;5053304;28;20060;-67
2023/07/04 01:54:06;;;;;;;0.43;0.10;;;;;;;17.58;100.00;100557.09;5055051;28;20029;-67
2023/07/04 01:56:33;;;;;;;0.20;0.10;;;;;;;17.61;100.00;100549.81;5057998;28;20120;-67
2023/07/04 01:58:59;;;;;;;0.80;0.10;;;;;;;17.61;100.00;100549.81;5068675;28;20032;-67
2023/07/04 02:01:25;;;;;;;1.45;0.20;;;;;;;17.64;100.00;100538.91;5075293;28;20024;-67
2023/07/04 02:03:52;;;;;;;0.82;0.15;;;;;;;17.69;100.00;100539.19;5065809;28;20109;-67
2023/07/04 02:06:17;;;;;;;0.43;0.10;;;;;;;17.70;100.00;100538.19;5069648;28;20028;-67
2023/07/04 02:08:43;;;;;;;0.40;0.10;;;;;;;17.68;100.00;100529.66;5066579;28;20028;-67
2023/07/04 02:11:08;;;;;;;3.35;0.20;;;;;;;17.67;100.00;100522.75;5063791;28;20028;-67
2023/07/04 02:13:34;;;;;;;0.30;0.10;;;;;;;17.68;100.00;100514.66;5064866;28;20047;-67
2023/07/04 02:16:00;;;;;;;2.92;0.15;;;;;;;17.69;100.00;100507.56;5065547;28;20598;-67
2023/07/04 02:18:25;;;;;;;1.13;0.43;;;;;;;17.67;100.00;100501.66;5069929;28;20040;-67
2023/07/04 02:20:52;;;;;;;1.02;0.10;;;;;;;17.66;100.00;100484.22;5063647;28;20029;-66
2023/07/04 02:23:19;;;;;;;1.15;0.10;;;;;;;17.72;100.00;100486.91;5072022;28;20036;-67
2023/07/04 02:25:45;;;;;;;0.68;0.10;;;;;;;17.78;100.00;100472.16;5061446;28;20041;-67
2023/07/04 02:28:11;;;;;;;0.63;0.10;;;;;;;17.80;100.00;100483.34;5068536;28;20037;-67
2023/07/04 02:30:37;;;;;;;0.40;0.10;;;;;;;17.86;100.00;100470.22;5068923;28;20680;-67
2023/07/04 02:33:04;;;;;;;0.85;0.20;;;;;;;17.89;100.00;100475.09;5066684;28;20033;-67
2023/07/04 02:35:31;;;;;;;1.30;0.15;;;;;;;17.92;100.00;100473.09;5068165;28;20063;-67
2023/07/04 02:37:59;;;;;;;0.20;0.17;;;;;;;18.00;100.00;100472.91;5067522;28;20048;-67
2023/07/04 02:40:27;;;;;;;1.40;0.10;;;;;;;18.18;100.00;100481.97;5066506;28;20036;-68
2023/07/04 02:42:53;;;;;;;0.30;0.10;;;;;;;18.24;100.00;100483.84;5062209;28;20024;-68
2023/07/04 02:45:19;;;;;;;0.30;0.00;;;;;;;18.26;100.00;100477.56;5070222;28;20429;-67
2023/07/04 02:47:45;;;;;;;0.68;0.38;;;;;;;18.23;100.00;100490.13;5062400;28;20028;-67
2023/07/04 02:50:11;;;;;;;0.30;0.10;;;;;;;18.22;100.00;100492.94;5070225;28;20134;-67
2023/07/04 02:52:37;;;;;;;0.75;0.00;;;;;;;18.26;100.00;100503.94;5062114;28;20032;-68
2023/07/04 02:55:04;;;;;;;2.50;0.40;;;;;;;18.27;100.00;100518.75;5063815;28;20044;-67
2023/07/04 02:57:30;;;;;;;0.88;0.10;;;;;;;18.23;100.00;100527.03;5062027;28;20098;-67
2023/07/04 02:59:59;;;;;;;0.22;0.10;;;;;;;18.20;100.00;100532.69;5055125;28;20032;-67
2023/07/04 03:02:26;;;;;;;2.60;0.68;;;;;;;18.13;100.00;100537.09;5056387;28;20033;-67
2023/07/04 03:04:52;;;;;;;0.60;0.20;;;;;;;18.07;100.00;100529.97;5060739;28;20077;-67
2023/07/04 03:07:18;;;;;;;0.40;0.10;;;;;;;18.04;100.00;100524.25;5056043;28;20124;-67
2023/07/04 03:09:46;;;;;;;1.77;0.30;;;;;;;18.00;100.00;100518.53;5055174;28;20021;-67
2023/07/04 03:12:13;;;;;;;4.13;0.20;;;;;;;17.95;100.00;100505.16;5068302;28;20375;-67
2023/07/04 03:14:40;;;;;;;1.77;0.10;;;;;;;17.90;100.00;100499.63;5051912;28;20044;-67
2023/07/04 03:17:07;;;;;;;5.70;0.20;;;;;;;17.76;100.00;100495.25;5057962;28;20114;-67
2023/07/04 03:19:33;;;;;;;2.67;0.20;;;;;;;17.65;100.00;100496.59;5060110;28;20503;-67
2023/07/04 03:21:58;;;;;;;2.28;0.10;;;;;;;17.62;100.00;100493.47;5052410;28;20060;-67
2023/07/04 03:24:23;;;;;;;1.77;0.20;;;;;;;17.58;100.00;100498.31;5055005;28;20029;-67
2023/07/04 03:26:49;;;;;;;0.52;0.10;;;;;;;17.55;100.00;100496.88;5075446;28;20036;-67
2023/07/04 03:29:14;;;;;;;0.52;0.10;;;;;;;17.57;100.00;100486.13;5061013;28;20469;-67
2023/07/04 03:31:40;;;;;;;1.25;0.20;;;;;;;17.66;100.00;100489.50;5052186;28;20059;-67
2023/07/04 03:34:05;;;;;;;0.98;0.20;;;;;;;17.68;100.00;100482.22;5063468;28;20133;-68
2023/07/04 03:36:30;;;;;;;3.05;0.20;;;;;;;17.68;100.00;100483.03;5063096;28;20035;-67
2023/07/04 03:38:56;;;;;;;0.45;0.13;;;;;;;17.67;100.00;100488.50;5064177;28;20118;-67
2023/07/04 03:41:22;;;;;;;0.30;0.17;;;;;;;17.62;100.00;100493.47;5071735;28;20039;-67
2023/07/04 03:43:47;;;;;;;0.75;0.40;;;;;;;17.61;100.00;100497.13;5066907;28;20041;-68
2023/07/04 03:46:13;;;;;;;2.25;0.13;;;;;;;17.61;100.00;100497.94;5063560;28;20041;-67
2023/07/04 03:48:38;;;;;;;1.02;0.13;;;;;;;17.61;100.00;100502.38;5069685;28;20388;-67
2023/07/04 03:51:04;;;;;;;2.28;0.10;;;;;;;17.56;100.00;100500.31;5062392;28;20029;-67
2023/07/04 03:53:30;;;;;;;0.50;0.20;;;;;;;17.48;100.00;100498.66;5061307;28;20453;-68
2023/07/04 03:55:56;;;;;;;2.78;0.20;;;;;;;17.45;100.00;100482.41;5063253;28;20048;-67
2023/07/04 03:58:23;;;;;;;0.45;0.13;;;;;;;17.50;100.00;100486.06;5062987;28;20029;-67
2023/07/04 04:00:50;;;;;;;1.58;0.20;;;;;;;17.39;100.00;100486.59;5064072;28;20083;-67
2023/07/04 04:03:16;;;;;;;1.67;0.30;;;;;;;17.35;100.00;100482.72;5060583;28;20028;-67
2023/07/04 04:05:42;;;;;;;3.58;0.30;;;;;;;17.36;100.00;100481.72;5061742;28;20109;-67
2023/07/04 04:08:08;;;;;;;0.63;0.20;;;;;;;17.38;100.00;100474.44;5066633;28;20472;-67
2023/07/04 04:10:34;;;;;;;0.90;0.30;;;;;;;17.50;100.00;100480.81;5060888;28;20028;-67
2023/07/04 04:12:59;;;;;;;1.08;0.20;;;;;;;17.65;100.00;100488.69;5056882;28;20040;-67
2023/07/04 04:15:25;;;;;;;2.70;0.40;;;;;;;17.76;100.00;100482.09;5067286;28;20036;-67
2023/07/04 04:17:50;;;;;;;2.65;0.20;;;;;;;17.78;100.00;100478.25;5063745;28;20063;-67
2023/07/04 04:20:16;;;;;;;1.83;0.20;;;;;;;17.76;100.00;100474.19;5065462;28;20033;-68
2023/07/04 04:22:45;;;;;;;2.20;0.20;;;;;;;17.86;100.00;100477.31;5063043;28;20032;-66
2023/07/04 04:25:12;;;;;;;4.70;0.20;;;;;;;17.92;100.00;100479.19;5065863;28;20484;-66
2023/07/04 04:27:38;;;;;;;0.40;0.10;;;;;;;17.97;100.00;100484.66;5060029;28;20048;-67
2023/07/04 04:30:10;;;;;;;0.40;0.20;;;;;;;18.01;100.00;100483.28;5061407;28;20040;-66
2023/07/04 04:32:39;;;;;;;1.02;0.17;;;;;;;18.03;100.00;100485.72;5055118;28;20397;-67
2023/07/04 04:35:08;;;;;;;0.47;0.10;;;;;;;18.10;100.00;100482.13;5063654;28;20033;-67
2023/07/04 04:37:34;;;;;;;4.03;0.20;;;;;;;18.19;100.00;100488.06;5057533;28;20044;-67
2023/07/04 04:40:00;;;;;;;0.52;0.10;;;;;;;18.23;100.00;100484.03;5061037;28;20064;-67
2023/07/04 04:42:31;;;;;;;3.95;0.20;;;;;;;18.33;100.00;100484.50;5059885;28;20040;-67
2023/07/04 04:44:57;;;;;;;1.23;0.20;;;;;;;18.41;100.00;100481.72;5061541;28;20024;-67
2023/07/04 04:47:24;;;;;;;1.80;0.20;;;;;;;18.45;100.00;100496.09;5058820;28;20035;-67
2023/07/04 04:49:51;;;;;;;1.60;0.20;;;;;;;18.56;100.00;100497.38;5058283;28;20112;-67
2023/07/04 04:52:21;;;;;;;1.67;0.10;;;;;;;18.77;100.00;100501.78;5058176;28;20048;-67
2023/07/04 04:54:47;;;;;;;0.57;0.20;;;;;;;18.93;100.00;100503.25;5065161;28;20488;-67
2023/07/04 04:57:14;;;;;;;2.10;0.20;;;;;;;18.89;100.00;100503.66;5061991;28;20128;-67
2023/07/04 04:59:40;;;;;;;2.72;0.20;;;;;;;18.85;100.00;100504.25;5070714;28;20123;-67
2023/07/04 05:02:05;;;;;;;0.70;0.20;;;;;;;18.85;100.00;100507.72;5062575;28;20485;-67
2023/07/04 05:04:31;;;;;;;0.95;0.20;;;;;;;18.83;100.00;100501.00;5059501;28;20028;-68
2023/07/04 05:06:57;;;;;;;1.58;0.10;;;;;;;18.78;100.00;100495.50;5057982;28;20160;-68
2023/07/04 05:09:23;;;;;;;4.30;0.20;;;;;;;18.77;100.00;100494.69;5063278;28;20032;-69
2023/07/04 05:11:49;;;;;;;1.77;0.20;;;;;;;18.78;100.00;100496.31;5060718;28;20123;-69
2023/07/04 05:14:15;;;;;;;1.15;0.20;;;;;;;18.86;100.00;100498.78;5058609;28;20479;-69
2023/07/04 05:16:41;;;;;;;4.68;0.30;;;;;;;18.95;100.00;100495.94;5056846;28;20040;-68
2023/07/04 05:19:07;;;;;;;1.30;0.15;;;;;;;19.02;100.00;100491.50;5059211;28;20051;-68
2023/07/04 05:21:33;;;;;;;1.65;0.20;;;;;;;19.07;100.00;100502.28;5060814;28;20388;-69
2023/07/04 05:24:00;;;;;;;0.57;0.10;;;;;;;19.06;100.00;100503.28;5057469;28;20036;-68
2023/07/04 05:26:28;;;;;;;0.70;0.17;;;;;;;19.07;100.00;100504.94;5062341;28;20393;-69
2023/07/04 05:28:55;;;;;;;0.70;0.20;;;;;;;19.17;100.00;100500.91;5056839;28;20041;-69
2023/07/04 05:31:24;;;;;;;1.20;0.30;;;;;;;19.14;100.00;100492.56;5055244;28;20029;-68
2023/07/04 05:33:50;;;;;;;3.60;0.20;;;;;;;19.06;100.00;100476.88;5053803;28;20041;-68
2023/07/04 05:36:20;;;;;;;1.15;0.30;;;;;;;18.96;100.00;100461.44;5056026;28;20044;-68
2023/07/04 05:38:50;;;;;;;1.20;0.40;;;;;;;18.98;100.00;100466.50;5051793;28;20404;-68
2023/07/04 05:41:17;;;;;;;2.13;0.20;;;;;;;19.03;100.00;100469.38;5069775;28;20494;-68
2023/07/04 05:43:43;;;;;;;1.83;0.13;;;;;;;19.14;100.00;100474.06;5056860;28;20495;-68
2023/07/04 05:46:11;;;;;;;0.52;0.22;;;;;;;19.28;100.00;100475.72;5061426;28;20024;-68
2023/07/04 05:48:37;;;;;;;2.40;0.20;;;;;;;19.21;100.00;100485.47;5064119;28;20036;-68
2023/07/04 05:51:07;;;;;;;0.35;0.13;;;;;;;19.30;100.00;100494.03;5068711;28;20480;-68
2023/07/04 05:53:34;;;;;;;1.30;0.20;;;;;;;19.44;100.00;100507.03;5067403;28;20082;-72
2023/07/04 05:56:07;;;;;;;0.85;0.20;;;;;;;19.50;100.00;100502.78;5069507;28;20041;-72
2023/07/04 05:58:34;;;;;;;2.78;0.20;;;;;;;19.69;100.00;100504.66;5071776;28;20039;-72
2023/07/04 06:01:11;;;;;;;0.65;0.10;;;;;;;19.80;100.00;100505.88;5065051;28;20028;-71
2023/07/04 06:03:37;;;;;;;0.40;0.20;;;;;;;19.98;100.00;100505.25;5069901;28;20044;-72
2023/07/04 06:06:15;;;;;;;5.40;0.50;;;;;;;20.09;100.00;100500.16;5073243;28;20025;-71
2023/07/04 06:08:41;;;;;;;2.25;0.10;;;;;;;20.03;100.00;100500.97;5067277;28;20072;-72
2023/07/04 06:11:07;;;;;;;1.63;0.20;;;;;;;20.09;100.00;100508.09;5068640;28;20021;-71
2023/07/04 06:13:32;;;;;;;3.72;0.30;;;;;;;20.16;100.00;100508.09;5055006;28;20047;-71
2023/07/04 06:15:59;;;;;;;1.65;0.10;;;;;;;20.32;100.00;100509.47;5065773;28;20490;-71
2023/07/04 06:18:25;;;;;;;0.63;0.10;;;;;;;20.47;97.76;100507.41;5070033;28;20119;-71
2023/07/04 06:20:51;;;;;;;1.27;0.20;;;;;;;20.57;96.86;100507.81;5070163;28;20115;-71
2023/07/04 06:23:21;;;;;;;1.25;0.38;;;;;;;20.67;97.16;100502.88;5077514;28;20533;-72
2023/07/04 06:25:55;;;;;;;0.88;0.15;;;;;;;20.82;96.21;100506.06;5068713;28;20043;-71
2023/07/04 06:28:20;;;;;;;0.50;0.10;;;;;;;20.96;94.88;100503.34;5070584;28;20041;-72
2023/07/04 06:30:45;;;;;;;3.05;0.20;;;;;;;21.16;94.50;100512.03;5071052;28;20063;-71
2023/07/04 06:33:11;;;;;;;2.25;0.10;;;;;;;21.39;92.83;100517.59;5076909;28;20028;-71
2023/07/04 06:35:40;;;;;;;0.50;0.20;;;;;;;21.91;90.08;100514.75;5070748;28;20025;-72
2023/07/04 06:38:06;;;;;;;0.52;0.10;;;;;;;22.20;87.54;100508.00;5071426;28;20043;-72
2023/07/04 06:40:31;;;;;;;1.27;0.10;;;;;;;21.93;86.13;100512.72;5065201;28;20484;-71
2023/07/04 06:42:57;;;;;;;2.97;0.20;;;;;;;21.77;85.59;100516.72;5075871;28;20046;-71
2023/07/04 06:45:22;;;;;;;2.60;0.10;;;;;;;21.92;85.32;100519.03;5067556;28;20495;-71
2023/07/04 06:47:47;;;;;;;1.52;0.10;;;;;;;21.97;85.67;100512.06;5072213;28;20039;-74
2023/07/04 06:50:13;;;;;;;2.85;0.10;;;;;;;21.93;86.79;100510.88;5070928;28;20039;-71
2023/07/04 06:52:39;;;;;;;2.45;0.30;;;;;;;21.89;86.99;100517.63;5065780;28;20038;-72
2023/07/04 06:55:05;;;;;;;2.47;0.20;;;;;;;21.91;88.01;100520.88;5073735;28;20040;-73
2023/07/04 06:57:31;;;;;;;2.33;0.20;;;;;;;22.06;88.29;100512.63;5060394;28;20032;-72
2023/07/04 06:59:56;;;;;;;2.50;0.25;;;;;;;22.03;88.03;100515.72;5063228;28;20024;-73
2023/07/04 07:02:24;;;;;;;1.25;0.43;;;;;;;22.07;88.13;100509.75;5057108;28;20063;-75
2023/07/04 07:04:49;;;;;;;2.33;0.10;;;;;;;22.08;87.20;100511.38;5065395;28;20073;-72
2023/07/04 07:07:15;;;;;;;1.85;0.10;;;;;;;22.13;86.63;100516.03;5066406;28;20028;-72
2023/07/04 07:09:42;;;;;;;0.75;0.13;;;;;;;22.31;85.77;100518.69;5069187;28;20020;-72
2023/07/04 07:12:11;;;;;;;0.93;0.20;;;;;;;22.44;84.66;100515.09;5066482;28;20032;-72
2023/07/04 07:14:38;;;;;;;4.28;0.10;;;;;;;22.61;84.96;100516.13;5064046;28;20551;-72
2023/07/04 07:17:05;;;;;;;0.70;0.10;;;;;;;23.03;82.45;100508.28;5066244;28;20057;-72
2023/07/04 07:19:31;;;;;;;1.48;0.55;;;;;;;23.29;81.13;100513.22;5059753;28;20036;-72
2023/07/04 07:22:00;;;;;;;3.17;0.10;;;;;;;23.19;80.36;100515.59;5054601;28;20024;-73
2023/07/04 07:24:27;;;;;;;2.33;0.10;;;;;;;23.14;80.38;100516.31;5069199;28;20040;-73
2023/07/04 07:26:52;;;;;;;1.63;0.10;;;;;;;23.20;80.77;100521.72;5064818;28;20016;-73
2023/07/04 07:29:18;;;;;;;4.97;0.10;;;;;;;23.26;80.92;100518.16;5060494;28;20031;-73
2023/07/04 07:31:43;;;;;;;0.50;0.10;;;;;;;23.20;80.12;100514.56;5054951;28;20202;-73
2023/07/04 07:34:09;;;;;;;2.00;0.10;;;;;;;23.64;79.89;100521.28;5064004;28;20136;-70
2023/07/04 07:36:37;;;;;;;1.67;0.15;;;;;;;23.83;78.29;100517.50;5071043;28;20456;-68
2023/07/04 07:39:05;;;;;;;0.57;0.20;;;;;;;23.81;77.04;100521.44;5068967;28;20052;-67
2023/07/04 07:41:37;;;;;;;1.30;0.10;;;;;;;23.87;73.78;100520.53;5064941;28;20032;-67
2023/07/04 07:44:07;;;;;;;1.95;0.20;;;;;;;23.86;73.57;100526.88;5067705;28;20591;-70
2023/07/04 07:46:32;;;;;;;2.65;0.20;;;;;;;23.87;75.18;100527.69;5060429;28;20029;-70
2023/07/04 07:48:58;;;;;;;0.38;0.10;;;;;;;24.02;74.95;100528.06;5070931;28;20028;-70
2023/07/04 07:51:25;;;;;;;0.65;0.20;;;;;;;24.23;74.47;100532.78;5068494;28;20032;-70
2023/07/04 07:53:53;;;;;;;4.72;0.15;;;;;;;24.41;73.98;100530.03;5070209;28;20056;-71
2023/07/04 07:56:22;;;;;;;1.65;0.20;;;;;;;24.68;73.06;100532.16;5068857;28;20052;-71
2023/07/04 07:58:47;;;;;;;2.13;0.10;;;;;;;24.88;72.63;100537.09;5069350;28;20043;-71
2023/07/04 08:01:15;;;;;;;1.10;0.15;;;;;;;25.02;71.96;100533.16;5069116;28;20024;-70
2023/07/04 08:03:41;;;;;;;1.73;0.10;;;;;;;25.06;71.57;100540.41;5068697;28;20098;-71
2023/07/04 08:06:20;;;;;;;1.98;0.10;;;;;;;25.07;72.11;100546.53;5063247;28;20460;-71
2023/07/04 08:08:45;;;;;;;0.88;0.10;;;;;;;25.30;72.70;100540.31;5064135;28;20102;-71
2023/07/04 08:11:14;;;;;;;0.30;0.10;;;;;;;25.30;72.37;100541.13;5068913;28;20055;-71
2023/07/04 08:13:40;;;;;;;0.73;0.10;;;;;;;25.23;72.26;100540.44;5069391;28;20025;-71
2023/07/04 08:16:05;;;;;;;1.50;0.20;;;;;;;25.29;72.18;100544.84;5068606;28;20396;-72
2023/07/04 08:18:31;;;;;;;1.17;0.10;;;;;;;25.49;71.50;100548.91;5068702;28;20024;-71
2023/07/04 08:21:02;;;;;;;0.52;0.10;;;;;;;25.59;69.46;100538.41;5071977;28;20437;-71
2023/07/04 08:23:28;;;;;;;0.32;0.10;;;;;;;25.62;69.06;100544.06;5064801;28;20507;-71
2023/07/04 08:25:54;;;;;;;0.52;0.20;;;;;;;25.62;66.48;100537.91;5066568;28;20017;-71
2023/07/04 08:28:21;;;;;;;0.30;0.10;;;;;;;25.64;66.74;100542.00;5068644;28;20052;-71
2023/07/04 08:30:46;;;;;;;0.32;0.10;;;;;;;25.69;66.38;100539.41;5068816;28;20129;-71
2023/07/04 08:33:16;;;;;;;2.00;0.47;;;;;;;25.85;65.94;100537.81;5069942;28;20565;-70
2023/07/04 08:35:57;;;;;;;0.20;0.10;;;;;;;25.74;64.49;100541.34;5067881;28;20036;-70
2023/07/04 08:38:22;;;;;;;0.40;0.10;;;;;;;25.81;65.13;100552.69;5063574;28;20431;-70
2023/07/04 08:40:48;;;;;;;0.85;0.20;;;;;;;26.01;64.81;100550.31;5062326;28;20031;-71
2023/07/04 08:43:19;;;;;;;0.82;0.10;;;;;;;26.17;63.88;100545.19;5068034;28;20037;-70
2023/07/04 08:45:45;;;;;;;0.55;0.20;;;;;;;26.34;64.04;100562.03;5066025;28;20511;-70
2023/07/04 08:48:17;;;;;;;0.10;0.10;;;;;;;26.20;62.40;100560.72;5073792;28;20111;-71
2023/07/04 08:50:45;;;;;;;0.95;0.10;;;;;;;26.40;63.20;100553.84;5068115;28;20041;-71
2023/07/04 08:53:24;;;;;;;0.32;0.10;;;;;;;26.57;61.96;100555.66;5068972;28;20037;-74
2023/07/04 08:56:03;;;;;;;0.28;0.10;;;;;;;26.39;63.48;100554.91;5065799;28;20115;-71
2023/07/04 08:58:38;;;;;;;0.30;0.10;;;;;;;26.49;62.59;100559.56;5063857;28;20364;-70
2023/07/04 09:01:15;;;;;;;0.40;0.13;;;;;;;26.74;62.91;100554.56;5068969;28;20043;-71
2023/07/04 09:03:56;;;;;;;0.55;0.10;;;;;;;26.80;62.22;100551.94;5065247;28;20123;-71
2023/07/04 09:06:42;;;;;;;0.30;0.10;;;;;;;26.95;60.46;100552.09;5068748;28;20016;-71
2023/07/04 09:09:13;;;;;;;0.70;0.20;;;;;;;27.02;63.40;100550.06;5068667;28;20032;-71
2023/07/04 09:11:38;;;;;;;0.35;0.10;;;;;;;26.95;63.24;100547.56;5059985;28;20040;-72
2023/07/04 09:14:17;;;;;;;1.23;0.20;;;;;;;27.18;61.30;100543.84;5054960;28;20031;-71
2023/07/04 09:16:48;;;;;;;0.50;0.20;;;;;;;27.17;61.95;100550.25;5062811;28;20025;-70
2023/07/04 09:19:17;;;;;;;0.55;0.20;;;;;;;26.99;61.09;100542.56;5072427;28;20404;-70
2023/07/04 09:21:44;;;;;;;1.55;0.20;;;;;;;27.04;62.13;100547.94;5063988;28;20218;-71
2023/07/04 09:24:10;;;;;;;0.38;0.15;;;;;;;27.02;61.51;100552.75;5067110;28;20038;-71
2023/07/04 09:26:52;;;;;;;0.80;0.17;;;;;;;26.99;60.02;100548.69;5064227;28;20029;-70
2023/07/04 09:29:22;;;;;;;0.70;0.20;;;;;;;27.05;60.75;100550.38;5072438;28;20064;-71
2023/07/04 09:31:53;;;;;;;0.22;0.10;;;;;;;27.01;60.09;100556.47;5070860;28;20028;-71
2023/07/04 09:34:41;;;;;;;0.60;0.20;;;;;;;26.64;60.57;100558.97;5069598;28;20047;-68
2023/07/04 09:37:12;;;;;;;1.02;0.10;;;;;;;26.61;60.10;100556.78;5073471;28;20029;-68
2023/07/04 09:39:58;;;;;;;4.22;0.20;;;;;;;26.63;57.45;100568.84;5071472;28;20050;-67
2023/07/04 09:42:40;;;;;;;0.50;0.20;;;;;;;26.64;61.00;100572.31;5063525;28;20606;-68
2023/07/04 09:45:12;;;;;;;1.60;0.15;;;;;;;26.77;59.47;100564.75;5072725;28;20086;-68
2023/07/04 09:47:43;;;;;;;3.72;0.22;;;;;;;26.86;58.64;100569.66;5083399;28;20043;-68
2023/07/04 09:50:14;;;;;;;0.32;0.13;;;;;;;26.87;58.92;100563.25;5073916;28;20110;-69
2023/07/04 09:52:40;;;;;;;0.95;0.20;;;;;;;26.94;60.51;100566.56;5072873;28;20039;-69
2023/07/04 09:55:24;;;;;;;1.08;0.10;;;;;;;27.07;58.11;100558.16;5067204;28;20025;-68
2023/07/04 09:57:49;;;;;;;0.50;0.20;;;;;;;26.96;59.88;100559.91;5070976;28;20028;-68
2023/07/04 10:00:25;;;;;;;0.17;0.10;;;;;;;27.14;58.44;100561.44;5067859;28;20384;-68
2023/07/04 10:02:56;;;;;;;0.52;0.20;;;;;;;27.55;60.60;100559.97;5068098;28;20500;-68
2023/07/04 10:05:26;;;;;;;0.30;0.20;;;;;;;27.74;59.29;100555.88;5070421;28;20020;-69
2023/07/04 10:08:05;;;;;;;4.40;0.20;;;;;;;27.88;59.94;100561.63;5068192;28;20036;-68
2023/07/04 10:10:43;;;;;;;0.60;0.20;;;;;;;27.96;61.66;100558.44;5071368;28;20033;-69
2023/07/04 10:13:12;;;;;;;1.33;0.20;;;;;;;27.82;61.61;100559.97;5070594;28;20025;-68
2023/07/04 10:15:43;;;;;;;1.80;0.28;;;;;;;27.82;62.35;100554.59;5070010;28;20056;-69
2023/07/04 10:18:26;;;;;;;4.03;0.20;;;;;;;27.60;58.70;100560.03;5065771;28;20091;-72
2023/07/04 10:20:57;;;;;;;0.40;0.10;;;;;;;27.68;61.26;100561.44;5068908;28;20037;-72
2023/07/04 10:23:26;;;;;;;1.23;0.20;;;;;;;27.51;59.94;100564.19;5065033;28;20036;-72
2023/07/04 10:25:53;;;;;;;1.23;0.22;;;;;;;27.28;58.86;100557.31;5059555;28;20036;-72
2023/07/04 10:28:25;;;;;;;0.93;0.20;;;;;;;27.14;58.74;100556.09;5066189;28;20036;-73
2023/07/04 10:31:17;;;;;;;2.58;0.70;;;;;;;27.12;57.39;100549.38;5058815;28;20039;-72
2023/07/04 10:33:55;;;;;;;1.30;0.30;;;;;;;27.48;58.84;100545.16;5064297;28;20036;-71
2023/07/04 10:36:31;;;;;;;0.60;0.20;;;;;;;27.85;58.05;100550.63;5077293;28;20146;-72
2023/07/04 10:39:01;;;;;;;1.15;0.20;;;;;;;27.89;58.66;100552.50;5063240;28;20048;-71
2023/07/04 10:41:41;;;;;;;2.22;0.28;;;;;;;27.85;57.96;100551.41;5064926;28;20130;-72
2023/07/04 10:44:29;;;;;;;0.80;0.20;;;;;;;27.62;57.39;100547.22;5070472;28;20048;-72
2023/07/04 10:47:04;;;;;;;0.80;0.30;;;;;;;27.66;56.43;100544.84;5056218;28;20037;-71
2023/07/04 10:49:35;;;;;;;;;;;;;;;27.47;53.05;100543.56;5060164;28;20571;-71
2023/07/04 10:52:25;;;;;;;0.45;0.22;;;;;;;27.61;54.81;100534.09;5068999;28;19970;-71
2023/07/04 10:54:51;;;;;;;2.63;0.40;;;;;;;27.55;56.37;100535.88;5057542;28;20498;-71
2023/07/04 10:57:26;;;;;;;1.67;0.20;;;;;;;27.43;55.37;100537.91;5054053;28;20041;-71
2023/07/04 10:59:58;;;;;;;0.50;0.20;;;;;;;27.72;57.25;100533.09;5052064;28;20532;-71
2023/07/04 11:02:34;;;;;;;0.80;0.20;;;;;;;27.85;55.36;100521.97;5065628;28;20433;-71
2023/07/04 11:05:09;;;;;;;1.65;0.30;;;;;;;27.96;56.66;100528.19;5056177;28;20025;-71
2023/07/04 11:07:39;;;;;;;1.13;0.40;;;;;;;28.03;56.48;100526.91;5067000;28;20048;-72
2023/07/04 11:10:09;;;;;;;0.70;0.40;;;;;;;28.07;54.21;100530.66;5063280;28;20040;-71
2023/07/04 11:12:37;;;;;;;0.70;0.35;;;;;;;27.99;53.78;100523.13;5063299;28;20089;-71
2023/07/04 11:15:21;;;;;;;2.22;0.60;;;;;;;27.45;52.00;100527.75;5056766;28;20484;-71
2023/07/04 11:17:50;;;;;;;6.53;0.40;;;;;;;27.39;54.76;100520.78;5060294;28;20051;-71
2023/07/04 11:20:21;;;;;;;2.22;0.40;;;;;;;27.64;54.95;100525.53;5061676;28;20124;-71
2023/07/04 11:23:00;;;;;;;2.17;0.40;;;;;;;27.94;53.35;100520.41;5061597;28;20476;-71
2023/07/04 11:25:41;;;;;;;1.33;0.50;;;;;;;28.01;51.94;100522.84;5056235;28;20032;-71
2023/07/04 11:28:37;;;;;;;0.82;0.50;;;;;;;27.44;51.65;100515.44;5056426;28;20127;-71
2023/07/04 11:31:24;;;;;;;1.40;0.40;;;;;;;27.47;51.91;100519.47;5064978;28;20486;-69